sensor_id;sensor_type;location;lat;lon;timestamp;P1;durP1;ratioP1;P2;durP2;ratioP2
33902;SDS011;20194;50.950;5.346;2024-02-28T00:02:00;71.35;;;32.38;;
33902;SDS011;20194;50.950;5.346;2024-02-28T00:04:26;73.13;;;32.50;;
33902;SDS011;20194;50.950;5.346;2024-02-28T00:06:52;77.93;;;33.75;;
33902;SDS011;20194;50.950;5.346;2024-02-28T00:09:17;71.38;;;33.15;;
33902;SDS011;20194;50.950;5.346;2024-02-28T00:11:44;77.20;;;33.35;;
33902;SDS011;20194;50.950;5.346;2024-02-28T00:14:10;77.10;;;35.42;;
33902;SDS011;20194;50.950;5.346;2024-02-28T00:16:36;73.88;;;34.78;;
33902;SDS011;20194;50.950;5.346;2024-02-28T00:19:05;76.88;;;35.70;;
33902;SDS011;20194;50.950;5.346;2024-02-28T00:21:31;73.60;;;34.50;;
33902;SDS011;20194;50.950;5.346;2024-02-28T00:23:57;69.15;;;33.45;;
33902;SDS011;20194;50.950;5.346;2024-02-28T00:26:22;70.45;;;33.13;;
33902;SDS011;20194;50.950;5.346;2024-02-28T00:28:48;73.50;;;33.65;;
33902;SDS011;20194;50.950;5.346;2024-02-28T00:31:14;72.85;;;33.63;;
33902;SDS011;20194;50.950;5.346;2024-02-28T00:33:40;66.35;;;31.20;;
33902;SDS011;20194;50.950;5.346;2024-02-28T00:36:06;70.65;;;32.97;;
33902;SDS011;20194;50.950;5.346;2024-02-28T00:38:32;72.35;;;32.65;;
33902;SDS011;20194;50.950;5.346;2024-02-28T00:40:57;69.63;;;31.83;;
33902;SDS011;20194;50.950;5.346;2024-02-28T00:43:23;73.97;;;33.70;;
33902;SDS011;20194;50.950;5.346;2024-02-28T00:45:49;83.72;;;36.53;;
33902;SDS011;20194;50.950;5.346;2024-02-28T00:48:14;75.28;;;34.70;;
33902;SDS011;20194;50.950;5.346;2024-02-28T00:50:40;76.85;;;33.90;;
33902;SDS011;20194;50.950;5.346;2024-02-28T00:53:05;71.45;;;32.88;;
33902;SDS011;20194;50.950;5.346;2024-02-28T00:55:31;67.97;;;31.45;;
33902;SDS011;20194;50.950;5.346;2024-02-28T00:57:57;72.25;;;33.33;;
33902;SDS011;20194;50.950;5.346;2024-02-28T01:00:23;68.88;;;32.20;;
33902;SDS011;20194;50.950;5.346;2024-02-28T01:02:49;62.63;;;31.13;;
33902;SDS011;20194;50.950;5.346;2024-02-28T01:05:15;68.55;;;33.30;;
33902;SDS011;20194;50.950;5.346;2024-02-28T01:07:40;70.63;;;32.55;;
33902;SDS011;20194;50.950;5.346;2024-02-28T01:10:06;80.22;;;33.33;;
33902;SDS011;20194;50.950;5.346;2024-02-28T01:12:32;70.25;;;32.55;;
33902;SDS011;20194;50.950;5.346;2024-02-28T01:14:59;73.60;;;33.28;;
33902;SDS011;20194;50.950;5.346;2024-02-28T01:17:25;91.88;;;37.08;;
33902;SDS011;20194;50.950;5.346;2024-02-28T01:19:50;79.57;;;34.55;;
33902;SDS011;20194;50.950;5.346;2024-02-28T01:22:16;75.40;;;34.03;;
33902;SDS011;20194;50.950;5.346;2024-02-28T01:24:42;71.80;;;33.15;;
33902;SDS011;20194;50.950;5.346;2024-02-28T01:27:07;83.63;;;35.60;;
33902;SDS011;20194;50.950;5.346;2024-02-28T01:29:33;76.35;;;34.42;;
33902;SDS011;20194;50.950;5.346;2024-02-28T01:31:59;87.30;;;35.67;;
33902;SDS011;20194;50.950;5.346;2024-02-28T01:34:24;74.20;;;34.13;;
33902;SDS011;20194;50.950;5.346;2024-02-28T01:36:50;104.05;;;35.05;;
33902;SDS011;20194;50.950;5.346;2024-02-28T01:39:16;82.53;;;34.03;;
33902;SDS011;20194;50.950;5.346;2024-02-28T01:41:50;103.75;;;34.65;;
33902;SDS011;20194;50.950;5.346;2024-02-28T01:44:16;106.53;;;35.67;;
33902;SDS011;20194;50.950;5.346;2024-02-28T01:46:43;79.82;;;34.45;;
33902;SDS011;20194;50.950;5.346;2024-02-28T01:49:08;93.55;;;34.67;;
33902;SDS011;20194;50.950;5.346;2024-02-28T01:51:34;94.22;;;34.08;;
33902;SDS011;20194;50.950;5.346;2024-02-28T01:54:01;150.32;;;36.42;;
33902;SDS011;20194;50.950;5.346;2024-02-28T01:56:27;83.68;;;33.42;;
33902;SDS011;20194;50.950;5.346;2024-02-28T01:58:54;88.28;;;34.80;;
33902;SDS011;20194;50.950;5.346;2024-02-28T02:01:21;73.47;;;33.03;;
33902;SDS011;20194;50.950;5.346;2024-02-28T02:03:47;97.50;;;33.78;;
33902;SDS011;20194;50.950;5.346;2024-02-28T02:06:13;98.00;;;34.58;;
33902;SDS011;20194;50.950;5.346;2024-02-28T02:08:39;80.88;;;35.03;;
33902;SDS011;20194;50.950;5.346;2024-02-28T02:11:06;79.43;;;35.00;;
33902;SDS011;20194;50.950;5.346;2024-02-28T02:13:32;72.65;;;32.25;;
33902;SDS011;20194;50.950;5.346;2024-02-28T02:15:58;76.10;;;35.97;;
33902;SDS011;20194;50.950;5.346;2024-02-28T02:18:23;81.95;;;31.48;;
33902;SDS011;20194;50.950;5.346;2024-02-28T02:20:58;66.82;;;31.00;;
33902;SDS011;20194;50.950;5.346;2024-02-28T02:23:30;71.10;;;31.13;;
33902;SDS011;20194;50.950;5.346;2024-02-28T02:25:56;91.20;;;31.15;;
33902;SDS011;20194;50.950;5.346;2024-02-28T02:28:22;71.43;;;32.72;;
33902;SDS011;20194;50.950;5.346;2024-02-28T02:30:48;67.88;;;30.92;;
33902;SDS011;20194;50.950;5.346;2024-02-28T02:33:14;73.22;;;31.77;;
33902;SDS011;20194;50.950;5.346;2024-02-28T02:35:40;61.80;;;29.88;;
33902;SDS011;20194;50.950;5.346;2024-02-28T02:38:05;67.57;;;32.17;;
33902;SDS011;20194;50.950;5.346;2024-02-28T02:40:31;68.72;;;32.58;;
33902;SDS011;20194;50.950;5.346;2024-02-28T02:42:57;66.40;;;31.10;;
33902;SDS011;20194;50.950;5.346;2024-02-28T02:45:23;66.32;;;30.48;;
33902;SDS011;20194;50.950;5.346;2024-02-28T02:47:48;63.92;;;30.85;;
33902;SDS011;20194;50.950;5.346;2024-02-28T02:50:14;67.40;;;31.73;;
33902;SDS011;20194;50.950;5.346;2024-02-28T02:52:40;74.60;;;33.03;;
33902;SDS011;20194;50.950;5.346;2024-02-28T02:55:05;73.57;;;31.77;;
33902;SDS011;20194;50.950;5.346;2024-02-28T02:57:31;68.20;;;32.28;;
33902;SDS011;20194;50.950;5.346;2024-02-28T02:59:58;66.18;;;30.50;;
33902;SDS011;20194;50.950;5.346;2024-02-28T03:02:24;70.40;;;34.03;;
33902;SDS011;20194;50.950;5.346;2024-02-28T03:04:49;67.97;;;31.63;;
33902;SDS011;20194;50.950;5.346;2024-02-28T03:07:15;62.83;;;31.23;;
33902;SDS011;20194;50.950;5.346;2024-02-28T03:09:41;68.20;;;32.53;;
33902;SDS011;20194;50.950;5.346;2024-02-28T03:12:06;67.35;;;32.08;;
33902;SDS011;20194;50.950;5.346;2024-02-28T03:14:34;70.20;;;31.23;;
33902;SDS011;20194;50.950;5.346;2024-02-28T03:17:00;62.90;;;30.60;;
33902;SDS011;20194;50.950;5.346;2024-02-28T03:19:26;59.95;;;29.85;;
33902;SDS011;20194;50.950;5.346;2024-02-28T03:21:52;58.03;;;29.75;;
33902;SDS011;20194;50.950;5.346;2024-02-28T03:24:18;52.90;;;25.92;;
33902;SDS011;20194;50.950;5.346;2024-02-28T03:26:44;57.63;;;27.85;;
33902;SDS011;20194;50.950;5.346;2024-02-28T03:29:10;58.22;;;27.70;;
33902;SDS011;20194;50.950;5.346;2024-02-28T03:31:35;60.83;;;29.00;;
33902;SDS011;20194;50.950;5.346;2024-02-28T03:34:01;60.58;;;29.20;;
33902;SDS011;20194;50.950;5.346;2024-02-28T03:36:27;61.17;;;30.35;;
33902;SDS011;20194;50.950;5.346;2024-02-28T03:38:53;78.55;;;32.50;;
33902;SDS011;20194;50.950;5.346;2024-02-28T03:41:20;141.85;;;35.28;;
33902;SDS011;20194;50.950;5.346;2024-02-28T03:43:45;98.47;;;33.30;;
33902;SDS011;20194;50.950;5.346;2024-02-28T03:46:11;65.45;;;30.10;;
33902;SDS011;20194;50.950;5.346;2024-02-28T03:48:37;65.63;;;30.58;;
33902;SDS011;20194;50.950;5.346;2024-02-28T03:51:02;85.22;;;31.60;;
33902;SDS011;20194;50.950;5.346;2024-02-28T03:53:29;72.45;;;30.88;;
33902;SDS011;20194;50.950;5.346;2024-02-28T03:55:55;81.65;;;30.40;;
33902;SDS011;20194;50.950;5.346;2024-02-28T03:58:20;88.55;;;31.88;;
33902;SDS011;20194;50.950;5.346;2024-02-28T04:00:46;89.75;;;31.63;;
33902;SDS011;20194;50.950;5.346;2024-02-28T04:03:12;69.72;;;32.00;;
33902;SDS011;20194;50.950;5.346;2024-02-28T04:05:39;71.68;;;30.10;;
33902;SDS011;20194;50.950;5.346;2024-02-28T04:08:05;79.47;;;32.05;;
33902;SDS011;20194;50.950;5.346;2024-02-28T04:10:31;77.93;;;31.17;;
33902;SDS011;20194;50.950;5.346;2024-02-28T04:12:56;67.55;;;30.75;;
33902;SDS011;20194;50.950;5.346;2024-02-28T04:15:22;73.68;;;31.70;;
33902;SDS011;20194;50.950;5.346;2024-02-28T04:17:50;83.10;;;33.75;;
33902;SDS011;20194;50.950;5.346;2024-02-28T04:20:16;75.47;;;33.08;;
33902;SDS011;20194;50.950;5.346;2024-02-28T04:22:43;79.68;;;33.70;;
33902;SDS011;20194;50.950;5.346;2024-02-28T04:25:08;75.97;;;33.17;;
33902;SDS011;20194;50.950;5.346;2024-02-28T04:27:35;80.13;;;32.25;;
33902;SDS011;20194;50.950;5.346;2024-02-28T04:30:01;98.22;;;36.28;;
33902;SDS011;20194;50.950;5.346;2024-02-28T04:32:27;111.70;;;36.15;;
33902;SDS011;20194;50.950;5.346;2024-02-28T04:34:53;101.60;;;37.10;;
33902;SDS011;20194;50.950;5.346;2024-02-28T04:37:19;89.15;;;35.58;;
33902;SDS011;20194;50.950;5.346;2024-02-28T04:39:44;91.88;;;35.38;;
33902;SDS011;20194;50.950;5.346;2024-02-28T04:42:10;175.57;;;37.17;;
33902;SDS011;20194;50.950;5.346;2024-02-28T04:44:36;121.32;;;34.28;;
33902;SDS011;20194;50.950;5.346;2024-02-28T04:47:01;120.57;;;33.78;;
33902;SDS011;20194;50.950;5.346;2024-02-28T04:49:27;126.25;;;33.13;;
33902;SDS011;20194;50.950;5.346;2024-02-28T04:51:53;82.78;;;33.50;;
33902;SDS011;20194;50.950;5.346;2024-02-28T04:54:19;88.63;;;30.30;;
33902;SDS011;20194;50.950;5.346;2024-02-28T04:56:44;75.80;;;29.00;;
33902;SDS011;20194;50.950;5.346;2024-02-28T04:59:11;60.85;;;26.98;;
33902;SDS011;20194;50.950;5.346;2024-02-28T05:01:41;84.93;;;27.40;;
33902;SDS011;20194;50.950;5.346;2024-02-28T05:04:10;85.25;;;25.40;;
33902;SDS011;20194;50.950;5.346;2024-02-28T05:06:36;79.72;;;26.83;;
33902;SDS011;20194;50.950;5.346;2024-02-28T05:09:02;63.13;;;27.23;;
33902;SDS011;20194;50.950;5.346;2024-02-28T05:11:28;53.50;;;24.23;;
33902;SDS011;20194;50.950;5.346;2024-02-28T05:13:54;100.95;;;26.55;;
33902;SDS011;20194;50.950;5.346;2024-02-28T05:16:20;58.83;;;25.75;;
33902;SDS011;20194;50.950;5.346;2024-02-28T05:18:45;77.60;;;26.92;;
33902;SDS011;20194;50.950;5.346;2024-02-28T05:21:12;64.05;;;25.90;;
33902;SDS011;20194;50.950;5.346;2024-02-28T05:23:38;76.93;;;26.33;;
33902;SDS011;20194;50.950;5.346;2024-02-28T05:26:04;79.20;;;26.45;;
33902;SDS011;20194;50.950;5.346;2024-02-28T05:28:31;65.97;;;25.00;;
33902;SDS011;20194;50.950;5.346;2024-02-28T05:31:10;53.75;;;23.80;;
33902;SDS011;20194;50.950;5.346;2024-02-28T05:33:49;58.75;;;24.42;;
33902;SDS011;20194;50.950;5.346;2024-02-28T05:36:23;69.50;;;24.23;;
33902;SDS011;20194;50.950;5.346;2024-02-28T05:38:49;75.05;;;25.73;;
33902;SDS011;20194;50.950;5.346;2024-02-28T05:41:17;48.15;;;23.52;;
33902;SDS011;20194;50.950;5.346;2024-02-28T05:43:43;55.47;;;25.60;;
33902;SDS011;20194;50.950;5.346;2024-02-28T05:46:08;59.72;;;25.30;;
33902;SDS011;20194;50.950;5.346;2024-02-28T05:48:34;79.60;;;23.98;;
33902;SDS011;20194;50.950;5.346;2024-02-28T05:51:00;80.38;;;24.67;;
33902;SDS011;20194;50.950;5.346;2024-02-28T05:53:28;63.22;;;25.30;;
33902;SDS011;20194;50.950;5.346;2024-02-28T05:55:57;56.90;;;24.05;;
33902;SDS011;20194;50.950;5.346;2024-02-28T05:58:23;47.78;;;24.27;;
33902;SDS011;20194;50.950;5.346;2024-02-28T06:00:50;55.63;;;24.65;;
33902;SDS011;20194;50.950;5.346;2024-02-28T06:03:16;52.50;;;25.30;;
33902;SDS011;20194;50.950;5.346;2024-02-28T06:05:42;53.78;;;22.05;;
33902;SDS011;20194;50.950;5.346;2024-02-28T06:08:08;55.72;;;24.00;;
33902;SDS011;20194;50.950;5.346;2024-02-28T06:10:33;52.35;;;24.60;;
33902;SDS011;20194;50.950;5.346;2024-02-28T06:12:59;57.70;;;24.73;;
33902;SDS011;20194;50.950;5.346;2024-02-28T06:15:25;48.72;;;23.50;;
33902;SDS011;20194;50.950;5.346;2024-02-28T06:17:51;82.03;;;24.70;;
33902;SDS011;20194;50.950;5.346;2024-02-28T06:20:17;45.53;;;23.77;;
33902;SDS011;20194;50.950;5.346;2024-02-28T06:22:43;53.72;;;23.50;;
33902;SDS011;20194;50.950;5.346;2024-02-28T06:25:09;52.13;;;23.23;;
33902;SDS011;20194;50.950;5.346;2024-02-28T06:27:45;45.60;;;23.83;;
33902;SDS011;20194;50.950;5.346;2024-02-28T06:30:11;47.88;;;24.05;;
33902;SDS011;20194;50.950;5.346;2024-02-28T06:32:41;61.20;;;24.00;;
33902;SDS011;20194;50.950;5.346;2024-02-28T06:35:08;52.75;;;23.13;;
33902;SDS011;20194;50.950;5.346;2024-02-28T06:37:34;46.35;;;22.85;;
33902;SDS011;20194;50.950;5.346;2024-02-28T06:40:00;55.83;;;23.05;;
33902;SDS011;20194;50.950;5.346;2024-02-28T06:42:29;45.05;;;22.70;;
33902;SDS011;20194;50.950;5.346;2024-02-28T06:44:55;46.08;;;23.13;;
33902;SDS011;20194;50.950;5.346;2024-02-28T06:47:20;49.33;;;23.90;;
33902;SDS011;20194;50.950;5.346;2024-02-28T06:49:46;49.95;;;24.17;;
33902;SDS011;20194;50.950;5.346;2024-02-28T06:52:12;49.63;;;23.85;;
33902;SDS011;20194;50.950;5.346;2024-02-28T06:54:38;51.15;;;24.20;;
33902;SDS011;20194;50.950;5.346;2024-02-28T06:57:04;55.13;;;24.65;;
33902;SDS011;20194;50.950;5.346;2024-02-28T06:59:29;56.47;;;24.27;;
33902;SDS011;20194;50.950;5.346;2024-02-28T07:01:56;50.35;;;23.77;;
33902;SDS011;20194;50.950;5.346;2024-02-28T07:04:22;53.60;;;24.95;;
33902;SDS011;20194;50.950;5.346;2024-02-28T07:06:48;58.40;;;24.35;;
33902;SDS011;20194;50.950;5.346;2024-02-28T07:09:14;53.28;;;25.25;;
33902;SDS011;20194;50.950;5.346;2024-02-28T07:11:40;51.50;;;24.50;;
33902;SDS011;20194;50.950;5.346;2024-02-28T07:14:06;54.35;;;25.35;;
33902;SDS011;20194;50.950;5.346;2024-02-28T07:16:33;51.78;;;24.45;;
33902;SDS011;20194;50.950;5.346;2024-02-28T07:19:00;49.63;;;24.92;;
33902;SDS011;20194;50.950;5.346;2024-02-28T07:21:26;50.65;;;23.98;;
33902;SDS011;20194;50.950;5.346;2024-02-28T07:23:52;56.10;;;24.38;;
33902;SDS011;20194;50.950;5.346;2024-02-28T07:26:19;55.65;;;23.98;;
33902;SDS011;20194;50.950;5.346;2024-02-28T07:28:44;54.38;;;24.48;;
33902;SDS011;20194;50.950;5.346;2024-02-28T07:31:17;55.20;;;24.35;;
33902;SDS011;20194;50.950;5.346;2024-02-28T07:33:44;64.95;;;24.88;;
33902;SDS011;20194;50.950;5.346;2024-02-28T07:36:10;55.10;;;23.85;;
33902;SDS011;20194;50.950;5.346;2024-02-28T07:38:36;60.35;;;24.80;;
33902;SDS011;20194;50.950;5.346;2024-02-28T07:41:03;54.53;;;23.20;;
33902;SDS011;20194;50.950;5.346;2024-02-28T07:43:29;63.88;;;23.95;;
33902;SDS011;20194;50.950;5.346;2024-02-28T07:45:58;52.33;;;23.02;;
33902;SDS011;20194;50.950;5.346;2024-02-28T07:48:24;61.75;;;24.52;;
33902;SDS011;20194;50.950;5.346;2024-02-28T07:50:49;51.78;;;21.95;;
33902;SDS011;20194;50.950;5.346;2024-02-28T07:53:18;60.60;;;22.40;;
33902;SDS011;20194;50.950;5.346;2024-02-28T07:55:44;57.95;;;23.83;;
33902;SDS011;20194;50.950;5.346;2024-02-28T07:58:10;48.10;;;19.40;;
33902;SDS011;20194;50.950;5.346;2024-02-28T08:00:35;56.45;;;20.58;;
33902;SDS011;20194;50.950;5.346;2024-02-28T08:03:01;65.95;;;22.60;;
33902;SDS011;20194;50.950;5.346;2024-02-28T08:05:27;52.35;;;20.85;;
33902;SDS011;20194;50.950;5.346;2024-02-28T08:07:53;59.20;;;21.60;;
33902;SDS011;20194;50.950;5.346;2024-02-28T08:10:19;60.78;;;21.38;;
33902;SDS011;20194;50.950;5.346;2024-02-28T08:12:45;61.42;;;19.98;;
33902;SDS011;20194;50.950;5.346;2024-02-28T08:15:11;62.58;;;21.90;;
33902;SDS011;20194;50.950;5.346;2024-02-28T08:17:36;55.17;;;18.95;;
33902;SDS011;20194;50.950;5.346;2024-02-28T08:20:02;60.80;;;21.40;;
33902;SDS011;20194;50.950;5.346;2024-02-28T08:22:33;62.70;;;21.60;;
33902;SDS011;20194;50.950;5.346;2024-02-28T08:24:59;66.10;;;22.20;;
33902;SDS011;20194;50.950;5.346;2024-02-28T08:27:25;70.22;;;21.48;;
33902;SDS011;20194;50.950;5.346;2024-02-28T08:29:50;73.95;;;24.50;;
33902;SDS011;20194;50.950;5.346;2024-02-28T08:32:17;68.40;;;21.60;;
33902;SDS011;20194;50.950;5.346;2024-02-28T08:34:44;76.32;;;22.77;;
33902;SDS011;20194;50.950;5.346;2024-02-28T08:37:11;65.35;;;21.50;;
33902;SDS011;20194;50.950;5.346;2024-02-28T08:39:37;64.88;;;22.55;;
33902;SDS011;20194;50.950;5.346;2024-02-28T08:42:03;74.75;;;21.83;;
33902;SDS011;20194;50.950;5.346;2024-02-28T08:44:29;73.32;;;21.38;;
33902;SDS011;20194;50.950;5.346;2024-02-28T08:46:54;70.57;;;21.48;;
33902;SDS011;20194;50.950;5.346;2024-02-28T08:49:20;71.82;;;23.13;;
33902;SDS011;20194;50.950;5.346;2024-02-28T08:51:45;78.70;;;23.67;;
33902;SDS011;20194;50.950;5.346;2024-02-28T08:54:11;59.38;;;20.15;;
33902;SDS011;20194;50.950;5.346;2024-02-28T08:56:37;70.43;;;22.25;;
33902;SDS011;20194;50.950;5.346;2024-02-28T08:59:03;67.75;;;22.92;;
33902;SDS011;20194;50.950;5.346;2024-02-28T09:01:28;64.43;;;22.60;;
33902;SDS011;20194;50.950;5.346;2024-02-28T09:03:54;63.35;;;21.48;;
33902;SDS011;20194;50.950;5.346;2024-02-28T09:06:20;67.30;;;20.50;;
33902;SDS011;20194;50.950;5.346;2024-02-28T09:08:45;65.90;;;21.45;;
33902;SDS011;20194;50.950;5.346;2024-02-28T09:11:11;58.53;;;21.50;;
33902;SDS011;20194;50.950;5.346;2024-02-28T09:13:37;63.60;;;20.92;;
33902;SDS011;20194;50.950;5.346;2024-02-28T09:16:03;69.85;;;22.80;;
33902;SDS011;20194;50.950;5.346;2024-02-28T09:18:29;55.17;;;20.60;;
33902;SDS011;20194;50.950;5.346;2024-02-28T09:20:54;60.13;;;21.63;;
33902;SDS011;20194;50.950;5.346;2024-02-28T09:23:20;60.50;;;20.23;;
33902;SDS011;20194;50.950;5.346;2024-02-28T09:25:46;59.17;;;20.38;;
33902;SDS011;20194;50.950;5.346;2024-02-28T09:28:12;55.70;;;19.80;;
33902;SDS011;20194;50.950;5.346;2024-02-28T09:30:39;49.42;;;19.30;;
33902;SDS011;20194;50.950;5.346;2024-02-28T09:33:05;47.63;;;18.35;;
33902;SDS011;20194;50.950;5.346;2024-02-28T09:35:31;47.50;;;18.45;;
33902;SDS011;20194;50.950;5.346;2024-02-28T09:37:57;45.63;;;18.00;;
33902;SDS011;20194;50.950;5.346;2024-02-28T09:40:22;47.70;;;18.13;;
33902;SDS011;20194;50.950;5.346;2024-02-28T09:42:52;48.90;;;17.08;;
33902;SDS011;20194;50.950;5.346;2024-02-28T09:45:20;50.20;;;18.73;;
33902;SDS011;20194;50.950;5.346;2024-02-28T09:47:47;53.17;;;20.08;;
33902;SDS011;20194;50.950;5.346;2024-02-28T09:50:13;46.97;;;18.67;;
33902;SDS011;20194;50.950;5.346;2024-02-28T09:52:39;54.88;;;18.98;;
33902;SDS011;20194;50.950;5.346;2024-02-28T09:55:06;47.60;;;18.40;;
33902;SDS011;20194;50.950;5.346;2024-02-28T09:57:32;46.13;;;17.95;;
33902;SDS011;20194;50.950;5.346;2024-02-28T10:00:00;91.65;;;26.98;;
33902;SDS011;20194;50.950;5.346;2024-02-28T10:02:26;58.67;;;20.13;;
33902;SDS011;20194;50.950;5.346;2024-02-28T10:04:53;50.00;;;18.08;;
33902;SDS011;20194;50.950;5.346;2024-02-28T10:07:22;47.70;;;17.23;;
33902;SDS011;20194;50.950;5.346;2024-02-28T10:09:48;51.38;;;17.75;;
33902;SDS011;20194;50.950;5.346;2024-02-28T10:12:14;54.70;;;20.23;;
33902;SDS011;20194;50.950;5.346;2024-02-28T10:14:40;49.03;;;19.08;;
33902;SDS011;20194;50.950;5.346;2024-02-28T10:17:05;48.08;;;16.27;;
33902;SDS011;20194;50.950;5.346;2024-02-28T10:19:33;46.67;;;17.42;;
33902;SDS011;20194;50.950;5.346;2024-02-28T10:21:59;104.00;;;34.00;;
33902;SDS011;20194;50.950;5.346;2024-02-28T10:24:25;61.78;;;21.95;;
33902;SDS011;20194;50.950;5.346;2024-02-28T10:26:51;69.30;;;23.80;;
33902;SDS011;20194;50.950;5.346;2024-02-28T10:29:25;76.93;;;26.10;;
33902;SDS011;20194;50.950;5.346;2024-02-28T10:31:54;64.55;;;21.95;;
33902;SDS011;20194;50.950;5.346;2024-02-28T10:34:20;75.35;;;26.95;;
33902;SDS011;20194;50.950;5.346;2024-02-28T10:36:46;72.57;;;26.50;;
33902;SDS011;20194;50.950;5.346;2024-02-28T10:39:12;53.92;;;21.85;;
33902;SDS011;20194;50.950;5.346;2024-02-28T10:41:39;59.15;;;22.85;;
33902;SDS011;20194;50.950;5.346;2024-02-28T10:44:05;51.70;;;21.30;;
33902;SDS011;20194;50.950;5.346;2024-02-28T10:46:31;45.60;;;18.25;;
33902;SDS011;20194;50.950;5.346;2024-02-28T10:48:57;47.33;;;18.45;;
33902;SDS011;20194;50.950;5.346;2024-02-28T10:51:23;47.83;;;18.42;;
33902;SDS011;20194;50.950;5.346;2024-02-28T10:54:00;49.30;;;16.92;;
33902;SDS011;20194;50.950;5.346;2024-02-28T10:56:38;46.47;;;17.13;;
33902;SDS011;20194;50.950;5.346;2024-02-28T10:59:07;46.67;;;19.77;;
33902;SDS011;20194;50.950;5.346;2024-02-28T11:01:37;44.95;;;17.98;;
33902;SDS011;20194;50.950;5.346;2024-02-28T11:04:08;44.33;;;16.88;;
33902;SDS011;20194;50.950;5.346;2024-02-28T11:06:35;56.25;;;18.38;;
33902;SDS011;20194;50.950;5.346;2024-02-28T11:09:11;41.83;;;15.10;;
33902;SDS011;20194;50.950;5.346;2024-02-28T11:11:38;52.10;;;19.23;;
33902;SDS011;20194;50.950;5.346;2024-02-28T11:14:05;36.72;;;16.63;;
33902;SDS011;20194;50.950;5.346;2024-02-28T11:16:34;54.65;;;18.33;;
33902;SDS011;20194;50.950;5.346;2024-02-28T11:19:01;49.85;;;18.48;;
33902;SDS011;20194;50.950;5.346;2024-02-28T11:21:29;41.60;;;17.52;;
33902;SDS011;20194;50.950;5.346;2024-02-28T11:23:59;46.95;;;16.65;;
33902;SDS011;20194;50.950;5.346;2024-02-28T11:26:26;62.72;;;23.23;;
33902;SDS011;20194;50.950;5.346;2024-02-28T11:28:53;53.38;;;18.73;;
33902;SDS011;20194;50.950;5.346;2024-02-28T11:31:20;48.58;;;17.92;;
33902;SDS011;20194;50.950;5.346;2024-02-28T11:33:46;50.45;;;19.00;;
33902;SDS011;20194;50.950;5.346;2024-02-28T11:36:12;41.67;;;15.85;;
33902;SDS011;20194;50.950;5.346;2024-02-28T11:38:40;39.20;;;15.18;;
33902;SDS011;20194;50.950;5.346;2024-02-28T11:41:07;37.13;;;15.90;;
33902;SDS011;20194;50.950;5.346;2024-02-28T11:43:33;53.60;;;19.08;;
33902;SDS011;20194;50.950;5.346;2024-02-28T11:46:07;51.80;;;18.92;;
33902;SDS011;20194;50.950;5.346;2024-02-28T11:48:33;46.45;;;17.30;;
33902;SDS011;20194;50.950;5.346;2024-02-28T11:50:59;36.90;;;15.63;;
33902;SDS011;20194;50.950;5.346;2024-02-28T11:53:26;40.85;;;16.63;;
33902;SDS011;20194;50.950;5.346;2024-02-28T11:55:52;38.55;;;15.15;;
33902;SDS011;20194;50.950;5.346;2024-02-28T11:58:18;42.25;;;17.63;;
33902;SDS011;20194;50.950;5.346;2024-02-28T12:00:49;40.30;;;15.73;;
33902;SDS011;20194;50.950;5.346;2024-02-28T12:03:21;38.20;;;15.45;;
33902;SDS011;20194;50.950;5.346;2024-02-28T12:05:47;39.78;;;16.00;;
33902;SDS011;20194;50.950;5.346;2024-02-28T12:08:13;27.38;;;13.10;;
33902;SDS011;20194;50.950;5.346;2024-02-28T12:10:39;31.13;;;11.75;;
33902;SDS011;20194;50.950;5.346;2024-02-28T12:13:05;27.10;;;11.18;;
33902;SDS011;20194;50.950;5.346;2024-02-28T12:15:32;25.52;;;11.15;;
33902;SDS011;20194;50.950;5.346;2024-02-28T12:17:58;33.17;;;13.32;;
33902;SDS011;20194;50.950;5.346;2024-02-28T12:20:24;40.88;;;13.77;;
33902;SDS011;20194;50.950;5.346;2024-02-28T12:22:50;37.95;;;13.93;;
33902;SDS011;20194;50.950;5.346;2024-02-28T12:25:15;167.60;;;44.63;;
33902;SDS011;20194;50.950;5.346;2024-02-28T12:27:41;35.65;;;14.75;;
33902;SDS011;20194;50.950;5.346;2024-02-28T12:30:07;74.55;;;24.35;;
33902;SDS011;20194;50.950;5.346;2024-02-28T12:32:33;27.02;;;11.00;;
33902;SDS011;20194;50.950;5.346;2024-02-28T12:34:59;31.45;;;12.40;;
33902;SDS011;20194;50.950;5.346;2024-02-28T12:37:25;25.30;;;10.77;;
33902;SDS011;20194;50.950;5.346;2024-02-28T12:39:51;31.67;;;11.88;;
33902;SDS011;20194;50.950;5.346;2024-02-28T12:42:17;25.10;;;11.30;;
33902;SDS011;20194;50.950;5.346;2024-02-28T12:44:43;24.17;;;9.68;;
33902;SDS011;20194;50.950;5.346;2024-02-28T12:47:11;22.17;;;10.05;;
33902;SDS011;20194;50.950;5.346;2024-02-28T12:49:37;27.83;;;10.45;;
33902;SDS011;20194;50.950;5.346;2024-02-28T12:52:03;25.33;;;10.38;;
33902;SDS011;20194;50.950;5.346;2024-02-28T12:54:29;27.05;;;9.95;;
33902;SDS011;20194;50.950;5.346;2024-02-28T12:56:55;24.33;;;9.90;;
33902;SDS011;20194;50.950;5.346;2024-02-28T12:59:20;17.83;;;7.80;;
33902;SDS011;20194;50.950;5.346;2024-02-28T13:01:47;22.30;;;8.48;;
33902;SDS011;20194;50.950;5.346;2024-02-28T13:04:13;13.50;;;6.00;;
33902;SDS011;20194;50.950;5.346;2024-02-28T13:06:39;16.40;;;6.22;;
33902;SDS011;20194;50.950;5.346;2024-02-28T13:09:05;19.77;;;6.47;;
33902;SDS011;20194;50.950;5.346;2024-02-28T13:11:37;13.48;;;6.38;;
33902;SDS011;20194;50.950;5.346;2024-02-28T13:14:03;13.50;;;5.50;;
33902;SDS011;20194;50.950;5.346;2024-02-28T13:16:29;10.35;;;5.50;;
33902;SDS011;20194;50.950;5.346;2024-02-28T13:18:55;14.95;;;5.20;;
33902;SDS011;20194;50.950;5.346;2024-02-28T13:21:21;13.38;;;4.90;;
33902;SDS011;20194;50.950;5.346;2024-02-28T13:23:46;11.02;;;4.32;;
33902;SDS011;20194;50.950;5.346;2024-02-28T13:26:12;10.48;;;4.38;;
33902;SDS011;20194;50.950;5.346;2024-02-28T13:28:45;8.40;;;3.70;;
33902;SDS011;20194;50.950;5.346;2024-02-28T13:31:11;10.27;;;4.07;;
33902;SDS011;20194;50.950;5.346;2024-02-28T13:33:38;6.00;;;3.00;;
33902;SDS011;20194;50.950;5.346;2024-02-28T13:36:06;5.05;;;2.85;;
33902;SDS011;20194;50.950;5.346;2024-02-28T13:38:32;5.22;;;2.47;;
33902;SDS011;20194;50.950;5.346;2024-02-28T13:40:58;4.85;;;3.10;;
33902;SDS011;20194;50.950;5.346;2024-02-28T13:43:25;9.55;;;4.10;;
33902;SDS011;20194;50.950;5.346;2024-02-28T13:45:50;5.40;;;3.08;;
33902;SDS011;20194;50.950;5.346;2024-02-28T13:50:46;5.20;;;2.85;;
33902;SDS011;20194;50.950;5.346;2024-02-28T13:53:14;8.77;;;3.58;;
33902;SDS011;20194;50.950;5.346;2024-02-28T13:55:44;5.57;;;2.97;;
33902;SDS011;20194;50.950;5.346;2024-02-28T13:58:13;10.13;;;3.40;;
33902;SDS011;20194;50.950;5.346;2024-02-28T14:00:43;4.90;;;3.42;;
33902;SDS011;20194;50.950;5.346;2024-02-28T14:03:10;8.18;;;3.78;;
33902;SDS011;20194;50.950;5.346;2024-02-28T14:05:36;9.05;;;3.70;;
33902;SDS011;20194;50.950;5.346;2024-02-28T14:08:02;7.40;;;2.38;;
33902;SDS011;20194;50.950;5.346;2024-02-28T14:10:29;5.78;;;2.42;;
33902;SDS011;20194;50.950;5.346;2024-02-28T14:12:55;10.88;;;2.30;;
33902;SDS011;20194;50.950;5.346;2024-02-28T14:15:21;6.25;;;2.88;;
33902;SDS011;20194;50.950;5.346;2024-02-28T14:17:47;5.20;;;2.70;;
33902;SDS011;20194;50.950;5.346;2024-02-28T14:20:13;3.60;;;2.72;;
33902;SDS011;20194;50.950;5.346;2024-02-28T14:22:40;4.93;;;2.60;;